Time;durP1;ratioP1;P1;durP2;ratioP2;P2;SDS_P1;SDS_P2;PMS_P1;PMS_P2;Temp;Humidity;BMP_temperature;BMP_pressure;BME280_temperature;BME280_humidity;BME280_pressure;Samples;Min_cycle;Max_cycle;Signal;HPM_P1;HPM_P2
2023/03/02 00:00:38;;;;;;;29.95;19.15;;;2.60;99.90;;;;;;5003134;28;20112;-44
2023/03/02 00:03:05;;;;;;;31.30;20.92;;;2.50;99.90;;;;;;5004451;28;20029;-42
2023/03/02 00:05:32;;;;;;;33.22;21.73;;;2.50;99.90;;;;;;5003416;28;20032;-42
2023/03/02 00:07:59;;;;;;;35.63;21.90;;;2.50;99.90;;;;;;5002594;28;20041;-41
2023/03/02 00:10:24;;;;;;;33.65;21.65;;;2.50;99.90;;;;;;5004085;28;20033;-40
2023/03/02 00:12:51;;;;;;;34.28;22.83;;;2.40;99.90;;;;;;5004164;28;20068;-43
2023/03/02 00:15:16;;;;;;;36.40;22.98;;;2.40;99.90;;;;;;5002951;28;20375;-43
2023/03/02 00:17:42;;;;;;;35.80;22.77;;;2.40;99.90;;;;;;5004036;28;20033;-42
2023/03/02 00:20:09;;;;;;;40.88;25.90;;;2.40;99.90;;;;;;5003256;28;20021;-41
2023/03/02 00:22:35;;;;;;;41.22;27.35;;;2.40;99.90;;;;;;5003257;28;20717;-42
2023/03/02 00:25:01;;;;;;;40.13;25.50;;;2.30;99.90;;;;;;5002871;28;20533;-42
2023/03/02 00:27:28;;;;;;;40.72;27.25;;;2.30;99.90;;;;;;5003932;28;20469;-43
2023/03/02 00:29:55;;;;;;;37.42;24.35;;;2.30;99.90;;;;;;5002102;28;20045;-42
2023/03/02 00:32:20;;;;;;;44.83;27.10;;;2.30;99.90;;;;;;5003075;28;20026;-42
2023/03/02 00:34:46;;;;;;;43.65;27.88;;;2.20;99.90;;;;;;5002946;28;20041;-43
2023/03/02 00:37:11;;;;;;;46.95;28.48;;;2.20;99.90;;;;;;5002378;28;20034;-43
2023/03/02 00:39:37;;;;;;;49.63;30.15;;;2.20;99.90;;;;;;5003018;28;20045;-44
2023/03/02 00:42:02;;;;;;;48.95;29.63;;;2.20;99.90;;;;;;5002703;28;20026;-42
2023/03/02 00:44:28;;;;;;;50.22;30.73;;;2.10;99.90;;;;;;5002637;28;20042;-43
2023/03/02 00:46:53;;;;;;;50.30;30.63;;;2.10;99.90;;;;;;5002391;28;20028;-43
2023/03/02 00:49:19;;;;;;;49.90;30.10;;;2.10;99.90;;;;;;5003910;28;20050;-42
2023/03/02 00:51:44;;;;;;;52.33;32.33;;;2.10;99.90;;;;;;5001938;28;20032;-42
2023/03/02 00:54:10;;;;;;;51.95;31.73;;;2.10;99.90;;;;;;5002693;28;20045;-43
2023/03/02 00:56:36;;;;;;;52.13;30.27;;;2.20;99.90;;;;;;5002048;28;20112;-42
2023/03/02 00:59:27;;;;;;;52.70;31.00;;;2.10;99.90;;;;;;5002402;28;20466;-43
2023/03/02 01:02:08;;;;;;;50.92;30.67;;;2.10;99.90;;;;;;5002270;28;20029;-43
2023/03/02 01:04:39;;;;;;;57.67;33.40;;;2.20;99.90;;;;;;5002135;28;20033;-42
2023/03/02 01:07:16;;;;;;;50.33;29.30;;;2.10;99.90;;;;;;5002484;28;20052;-43
2023/03/02 01:09:43;;;;;;;50.75;30.00;;;2.20;99.90;;;;;;5002504;28;20180;-43
2023/03/02 01:12:10;;;;;;;49.90;29.75;;;2.20;99.90;;;;;;5001353;28;20696;-43
2023/03/02 01:14:38;;;;;;;52.40;30.45;;;2.10;99.90;;;;;;5002898;28;20042;-42
2023/03/02 01:17:09;;;;;;;51.88;30.83;;;2.20;99.90;;;;;;5002017;28;20105;-43
2023/03/02 01:19:35;;;;;;;51.13;29.10;;;2.20;99.90;;;;;;5001686;28;20053;-42
2023/03/02 01:22:01;;;;;;;57.50;32.55;;;2.20;99.90;;;;;;5001660;28;20018;-43
2023/03/02 01:24:26;;;;;;;55.40;32.13;;;2.20;99.90;;;;;;5002906;28;20112;-42
2023/03/02 01:26:52;;;;;;;57.42;32.88;;;2.20;99.90;;;;;;5001098;28;20137;-42
2023/03/02 01:29:18;;;;;;;58.78;34.72;;;2.30;99.90;;;;;;5001730;28;20156;-42
2023/03/02 01:31:43;;;;;;;61.42;34.92;;;2.30;99.90;;;;;;5000776;28;20034;-44
2023/03/02 01:34:09;;;;;;;51.80;30.67;;;2.20;99.90;;;;;;5001508;28;20029;-42
2023/03/02 01:36:35;;;;;;;52.38;31.75;;;2.30;99.90;;;;;;5001736;28;20072;-42
2023/03/02 01:39:00;;;;;;;53.55;30.65;;;2.20;99.90;;;;;;5000320;28;20057;-44
2023/03/02 01:41:26;;;;;;;50.47;30.38;;;2.20;99.90;;;;;;5002027;28;20394;-43
2023/03/02 01:43:52;;;;;;;42.78;26.10;;;2.20;99.90;;;;;;5001003;28;20564;-43
2023/03/02 01:46:22;;;;;;;57.20;32.58;;;2.20;99.90;;;;;;5001522;28;20030;-41
2023/03/02 01:48:55;;;;;;;47.15;27.73;;;2.20;99.90;;;;;;5001565;28;20045;-43
2023/03/02 01:51:23;;;;;;;58.20;33.17;;;2.20;99.90;;;;;;4982911;28;20154;-42
2023/03/02 01:53:56;;;;;;;49.65;30.23;;;2.20;99.90;;;;;;4995195;28;20034;-43
2023/03/02 01:56:24;;;;;;;;;;;2.20;99.90;;;;;;5002115;28;20137;-42
2023/03/02 01:58:53;;;;;;;58.25;31.88;;;2.20;99.90;;;;;;5001491;28;20288;-43
2023/03/02 02:01:25;;;;;;;52.65;29.80;;;2.20;99.90;;;;;;5001283;28;20696;-43
2023/03/02 02:03:51;;;;;;;52.13;30.95;;;2.20;99.90;;;;;;5001244;28;20026;-43
2023/03/02 02:06:29;;;;;;;55.97;30.98;;;2.10;99.90;;;;;;5001493;28;20053;-43
2023/03/02 02:08:59;;;;;;;49.30;30.00;;;2.10;99.90;;;;;;5000625;28;20030;-43
2023/03/02 02:11:24;;;;;;;52.53;30.85;;;2.10;99.90;;;;;;5001868;28;20030;-42
2023/03/02 02:13:55;;;;;;;49.92;28.55;;;2.10;99.90;;;;;;5000319;28;20033;-43
2023/03/02 02:16:28;;;;;;;58.92;33.25;;;2.10;99.90;;;;;;5001319;28;20034;-43
2023/03/02 02:18:54;;;;;;;43.45;26.65;;;2.10;99.90;;;;;;5001287;28;20053;-42
2023/03/02 02:21:20;;;;;;;46.58;26.40;;;2.10;99.90;;;;;;5000937;28;20030;-43
2023/03/02 02:24:22;;;;;;;46.22;28.13;;;2.10;99.90;;;;;;5001334;28;20022;-44
2023/03/02 02:26:53;;;;;;;47.25;28.42;;;2.10;99.90;;;;;;4995418;28;20037;-42
2023/03/02 02:29:32;;;;;;;44.42;26.55;;;2.10;99.90;;;;;;5000264;28;20064;-42
2023/03/02 02:32:12;;;;;;;46.45;26.40;;;2.10;99.90;;;;;;5000504;28;20030;-43
2023/03/02 02:34:48;;;;;;;48.92;27.90;;;2.10;99.90;;;;;;5001194;28;20432;-41
2023/03/02 02:37:19;;;;;;;44.50;26.35;;;2.00;99.90;;;;;;5000498;28;20033;-42
2023/03/02 02:39:50;;;;;;;48.70;28.52;;;2.00;99.90;;;;;;5000307;28;20121;-43
2023/03/02 02:42:25;;;;;;;42.83;24.88;;;2.00;99.90;;;;;;5000536;28;20107;-42
2023/03/02 02:44:55;;;;;;;46.53;26.27;;;2.00;99.90;;;;;;4999340;28;20485;-43
2023/03/02 02:47:21;;;;;;;41.42;24.70;;;2.00;99.90;;;;;;5000466;28;20361;-42
2023/03/02 02:49:49;;;;;;;42.50;24.80;;;1.90;99.90;;;;;;4999602;28;20474;-43
2023/03/02 02:52:18;;;;;;;44.65;25.40;;;1.90;99.90;;;;;;5001168;28;20033;-43
2023/03/02 02:54:46;;;;;;;42.70;25.80;;;2.00;99.90;;;;;;5000548;28;20089;-43
2023/03/02 02:57:16;;;;;;;44.28;26.10;;;2.00;99.90;;;;;;4999798;28;20030;-42
2023/03/02 02:59:46;;;;;;;44.15;25.48;;;1.90;99.90;;;;;;5000149;28;20529;-42
2023/03/02 03:02:18;;;;;;;43.22;24.88;;;2.00;99.90;;;;;;5001072;28;20041;-42
2023/03/02 03:05:01;;;;;;;50.63;28.10;;;1.90;99.90;;;;;;4999441;28;20054;-43
2023/03/02 03:07:27;;;;;;;48.15;27.52;;;1.90;99.90;;;;;;5000113;28;20595;-42
2023/03/02 03:10:18;;;;;;;50.13;28.45;;;1.80;99.90;;;;;;4999323;28;20796;-42
2023/03/02 03:12:45;;;;;;;49.53;27.63;;;1.80;99.90;;;;;;5000525;28;20026;-44
2023/03/02 03:15:12;;;;;;;52.70;29.20;;;1.70;99.90;;;;;;5000795;28;20030;-41
2023/03/02 03:17:38;;;;;;;48.92;26.80;;;1.70;99.90;;;;;;4999664;28;20017;-42
2023/03/02 03:20:08;;;;;;;50.28;27.75;;;1.70;99.90;;;;;;5000208;28;20108;-42
2023/03/02 03:22:36;;;;;;;51.42;29.58;;;1.70;99.90;;;;;;4999272;28;20109;-42
2023/03/02 03:25:01;;;;;;;48.58;28.08;;;1.60;99.90;;;;;;4999398;28;20397;-43
2023/03/02 03:27:30;;;;;;;53.53;28.60;;;1.60;99.90;;;;;;5000342;28;20030;-42
2023/03/02 03:29:55;;;;;;;53.70;28.70;;;1.60;99.90;;;;;;5000199;28;20034;-43
2023/03/02 03:32:21;;;;;;;50.40;27.17;;;1.50;99.90;;;;;;4999652;28;20100;-43
2023/03/02 03:34:47;;;;;;;49.70;27.08;;;1.50;99.90;;;;;;4999750;28;20088;-42
2023/03/02 03:37:15;;;;;;;50.38;27.52;;;1.50;99.90;;;;;;4999625;28;20022;-43
2023/03/02 03:39:41;;;;;;;49.42;27.17;;;1.50;99.90;;;;;;4999294;28;20026;-42
2023/03/02 03:42:07;;;;;;;53.42;29.25;;;1.40;99.90;;;;;;4999422;28;20757;-41
2023/03/02 03:44:33;;;;;;;47.75;27.65;;;1.40;99.90;;;;;;5000298;28;20026;-43
2023/03/02 03:46:58;;;;;;;58.33;31.40;;;1.40;99.90;;;;;;4998977;28;20044;-43
2023/03/02 03:49:25;;;;;;;46.22;27.08;;;1.30;99.90;;;;;;5000006;28;20038;-43
2023/03/02 03:51:50;;;;;;;46.15;26.33;;;1.20;99.90;;;;;;5000477;28;20395;-42
2023/03/02 03:54:16;;;;;;;48.58;26.63;;;1.20;99.90;;;;;;5000110;28;20528;-42
2023/03/02 03:56:47;;;;;;;53.53;27.73;;;1.20;99.90;;;;;;5000433;28;20125;-42
2023/03/02 03:59:20;;;;;;;49.08;26.48;;;1.20;99.90;;;;;;4999826;28;20060;-42
2023/03/02 04:01:49;;;;;;;56.42;28.98;;;1.20;99.90;;;;;;5000184;28;20036;-43
2023/03/02 04:04:18;;;;;;;56.03;29.88;;;1.20;99.90;;;;;;4999953;28;20014;-42
2023/03/02 04:06:44;;;;;;;58.47;30.77;;;1.10;99.90;;;;;;4999566;28;20030;-43
2023/03/02 04:09:11;;;;;;;54.78;29.00;;;1.10;99.90;;;;;;4999645;28;20040;-42
2023/03/02 04:11:39;;;;;;;57.28;28.95;;;1.10;99.90;;;;;;4999696;28;20414;-43
2023/03/02 04:14:09;;;;;;;52.50;28.20;;;1.10;99.90;;;;;;4998849;28;20544;-43
2023/03/02 04:16:39;;;;;;;62.30;31.90;;;1.10;99.90;;;;;;4999794;28;20519;-43
2023/03/02 04:19:08;;;;;;;55.30;29.92;;;1.10;99.90;;;;;;4999808;28;20080;-42
2023/03/02 04:21:39;;;;;;;57.47;29.25;;;1.10;99.90;;;;;;5002705;28;20033;-43
2023/03/02 04:24:06;;;;;;;53.50;28.85;;;1.10;99.90;;;;;;5002646;28;20137;-43
2023/03/02 04:26:33;;;;;;;55.20;29.20;;;1.10;99.90;;;;;;4984629;28;20050;-43
2023/03/02 04:28:58;;;;;;;51.28;28.42;;;1.10;99.90;;;;;;4997470;28;20034;-43
2023/03/02 04:31:24;;;;;;;52.78;28.42;;;1.00;99.90;;;;;;5004084;28;20088;-42
2023/03/02 04:33:50;;;;;;;59.38;29.40;;;1.10;99.90;;;;;;5002460;28;20038;-43
2023/03/02 04:36:15;;;;;;;63.78;32.42;;;1.00;99.90;;;;;;5002482;28;20026;-42
2023/03/02 04:38:41;;;;;;;54.28;28.63;;;1.00;99.90;;;;;;5003075;28;20508;-43
2023/03/02 04:41:09;;;;;;;53.00;28.10;;;1.00;99.90;;;;;;5003187;28;20037;-42
2023/03/02 04:43:35;;;;;;;51.35;27.40;;;1.00;99.90;;;;;;5002594;28;20061;-43
2023/03/02 04:46:00;;;;;;;51.45;26.00;;;1.00;99.90;;;;;;5003682;28;20085;-43
2023/03/02 04:48:26;;;;;;;45.58;24.20;;;1.00;99.90;;;;;;5002519;28;20033;-43
2023/03/02 04:50:52;;;;;;;49.17;25.33;;;1.00;99.90;;;;;;5002447;28;20029;-42
2023/03/02 04:53:17;;;;;;;47.03;25.25;;;1.00;99.90;;;;;;5000158;28;20037;-43
2023/03/02 04:55:43;;;;;;;40.83;23.05;;;1.00;99.90;;;;;;5001532;28;20544;-43
2023/03/02 04:58:08;;;;;;;47.70;24.40;;;1.00;99.90;;;;;;5002711;28;20025;-41
2023/03/02 05:00:37;;;;;;;47.78;25.45;;;1.00;99.90;;;;;;5002993;28;20030;-43
2023/03/02 05:03:03;;;;;;;42.55;22.98;;;1.00;99.90;;;;;;5002000;28;20748;-44
2023/03/02 05:05:30;;;;;;;42.65;22.95;;;1.00;99.90;;;;;;5002850;28;20073;-43
2023/03/02 05:07:57;;;;;;;40.95;22.75;;;1.00;99.90;;;;;;4983651;28;20031;-42
2023/03/02 05:10:24;;;;;;;45.63;23.98;;;1.00;99.90;;;;;;4995487;28;20397;-42
2023/03/02 05:13:22;;;;;;;41.63;22.33;;;1.00;99.90;;;;;;5002101;28;20144;-42
2023/03/02 05:15:42;;;;;;;44.22;22.88;;;1.00;99.90;;;;;;4999271;28;20030;-43
2023/03/02 05:18:09;;;;;;;44.33;23.90;;;1.00;99.90;;;;;;5001102;28;20040;-43
2023/03/02 05:20:36;;;;;;;42.03;23.58;;;1.00;99.90;;;;;;5002466;28;20081;-43
2023/03/02 05:23:04;;;;;;;44.08;22.40;;;0.90;99.90;;;;;;5002087;28;20828;-43
2023/03/02 05:25:35;;;;;;;48.03;25.25;;;0.90;99.90;;;;;;5001403;28;20065;-43
2023/03/02 05:28:01;;;;;;;45.08;23.95;;;0.90;99.90;;;;;;5001761;28;20072;-43
2023/03/02 05:30:27;;;;;;;47.88;25.20;;;0.90;99.90;;;;;;5001187;28;20033;-43
2023/03/02 05:32:55;;;;;;;47.45;24.08;;;0.90;99.90;;;;;;5000976;28;20103;-43
2023/03/02 05:35:24;;;;;;;44.53;24.50;;;0.90;99.90;;;;;;5001312;28;20165;-43
2023/03/02 05:37:50;;;;;;;49.60;24.65;;;0.90;99.90;;;;;;5001753;28;20088;-43
2023/03/02 05:40:19;;;;;;;49.38;25.42;;;0.90;99.90;;;;;;5001850;28;20026;-42
2023/03/02 05:42:45;;;;;;;48.95;25.20;;;0.80;99.90;;;;;;5002309;28;20057;-42
2023/03/02 05:45:31;;;;;;;47.83;25.70;;;0.90;99.90;;;;;;5001870;28;20811;-42
2023/03/02 05:47:57;;;;;;;45.92;24.00;;;0.80;99.90;;;;;;4991978;28;20218;-42
2023/03/02 05:50:23;;;;;;;46.33;26.63;;;0.80;99.90;;;;;;5002103;28;20496;-41
2023/03/02 05:52:51;;;;;;;51.90;28.15;;;0.80;99.90;;;;;;5002075;28;20084;-42
2023/03/02 05:55:17;;;;;;;45.72;24.98;;;0.80;99.90;;;;;;5000942;28;20511;-42
2023/03/02 05:57:44;;;;;;;47.53;25.58;;;0.80;99.90;;;;;;5002391;28;20601;-43
2023/03/02 06:00:12;;;;;;;44.33;23.88;;;0.80;99.90;;;;;;4999421;28;20129;-42
2023/03/02 06:02:39;;;;;;;45.42;23.10;;;0.70;99.90;;;;;;5001644;28;20616;-41
2023/03/02 06:05:10;;;;;;;41.95;22.55;;;0.70;99.90;;;;;;5001922;28;20032;-43
2023/03/02 06:07:39;;;;;;;49.78;26.33;;;0.70;99.90;;;;;;5000799;28;20025;-43
2023/03/02 06:10:11;;;;;;;51.42;26.33;;;0.70;99.90;;;;;;5001403;28;20389;-43
2023/03/02 06:12:38;;;;;;;52.70;27.45;;;0.70;99.90;;;;;;5001636;28;20030;-42
2023/03/02 06:15:08;;;;;;;47.83;25.00;;;0.70;99.90;;;;;;5000515;28;20044;-42
2023/03/02 06:17:33;;;;;;;46.78;25.50;;;0.70;99.90;;;;;;5000387;28;20065;-41
2023/03/02 06:19:59;;;;;;;51.20;26.17;;;0.70;99.90;;;;;;5000787;28;20109;-43
2023/03/02 06:22:25;;;;;;;47.25;24.95;;;0.70;99.90;;;;;;5000832;28;20098;-42
2023/03/02 06:24:50;;;;;;;47.95;24.60;;;0.70;99.90;;;;;;5001291;28;20030;-41
2023/03/02 06:27:16;;;;;;;52.75;27.15;;;0.70;99.90;;;;;;4999967;28;20718;-41
2023/03/02 06:29:41;;;;;;;53.60;28.23;;;0.70;99.90;;;;;;5001202;28;20048;-44
2023/03/02 06:32:07;;;;;;;53.92;28.08;;;0.70;99.90;;;;;;5000530;28;20018;-39
2023/03/02 06:34:32;;;;;;;48.78;27.05;;;0.70;99.90;;;;;;5000135;28;20025;-43
2023/03/02 06:36:58;;;;;;;46.33;23.75;;;0.70;99.90;;;;;;5000080;28;20578;-44
2023/03/02 06:39:24;;;;;;;48.20;25.63;;;0.70;99.90;;;;;;5000891;28;20478;-42
2023/03/02 06:41:50;;;;;;;42.38;22.08;;;0.60;99.90;;;;;;4999589;28;20037;-42
2023/03/02 06:44:16;;;;;;;41.08;21.55;;;0.60;99.90;;;;;;4999934;28;20583;-43
2023/03/02 06:46:44;;;;;;;44.00;23.58;;;0.60;99.90;;;;;;4999474;28;20037;-44
2023/03/02 06:49:10;;;;;;;41.85;21.58;;;0.60;99.90;;;;;;4998480;28;20052;-42
2023/03/02 06:51:36;;;;;;;49.60;25.20;;;0.60;99.90;;;;;;4998683;28;20030;-42
2023/03/02 06:54:02;;;;;;;51.20;25.63;;;0.60;99.90;;;;;;4998996;28;20033;-42
2023/03/02 06:56:28;;;;;;;49.22;24.88;;;0.60;99.90;;;;;;4999326;28;20792;-43
2023/03/02 06:58:53;;;;;;;43.97;24.27;;;0.60;99.90;;;;;;4999851;28;20157;-43
2023/03/02 07:01:19;;;;;;;53.45;28.92;;;0.60;99.90;;;;;;4999026;28;20112;-42
2023/03/02 07:03:45;;;;;;;51.97;25.98;;;0.70;99.90;;;;;;4999979;28;20075;-43
2023/03/02 07:06:12;;;;;;;51.20;26.77;;;0.60;99.90;;;;;;5000282;28;20109;-43
2023/03/02 07:08:39;;;;;;;48.28;25.30;;;0.70;99.90;;;;;;4999406;28;20712;-43
2023/03/02 07:11:10;;;;;;;48.95;26.08;;;0.70;99.90;;;;;;4999124;28;20057;-44
2023/03/02 07:13:37;;;;;;;54.22;26.80;;;0.70;99.90;;;;;;4999174;28;20026;-43
2023/03/02 07:16:10;;;;;;;55.47;26.25;;;0.70;99.90;;;;;;4999873;28;20088;-43
2023/03/02 07:18:39;;;;;;;48.05;24.27;;;0.70;99.90;;;;;;4998729;28;20033;-43
2023/03/02 07:21:05;;;;;;;45.22;23.02;;;0.80;99.90;;;;;;4989000;28;20033;-44
2023/03/02 07:23:31;;;;;;;46.03;23.55;;;0.80;99.90;;;;;;4999038;28;20029;-42
2023/03/02 07:25:57;;;;;;;44.15;22.50;;;0.80;99.90;;;;;;4999870;28;20817;-43
2023/03/02 07:28:24;;;;;;;50.92;25.00;;;0.90;99.90;;;;;;4999874;28;20072;-43
2023/03/02 07:30:51;;;;;;;44.85;24.38;;;0.90;99.90;;;;;;4999852;28;20599;-42
2023/03/02 07:33:17;;;;;;;45.05;23.55;;;0.90;99.90;;;;;;4999280;28;20050;-43
2023/03/02 07:35:43;;;;;;;45.97;24.42;;;1.00;99.90;;;;;;4999523;28;20566;-42
2023/03/02 07:38:08;;;;;;;45.72;22.08;;;1.00;99.90;;;;;;4998874;28;20616;-42
2023/03/02 07:40:40;;;;;;;46.42;23.40;;;1.10;99.90;;;;;;4999759;28;20776;-43
2023/03/02 07:43:06;;;;;;;45.47;23.35;;;1.10;99.90;;;;;;4980000;28;20061;-43
2023/03/02 07:45:38;;;;;;;47.80;23.05;;;1.10;99.90;;;;;;4996262;28;20147;-42
2023/03/02 07:48:04;;;;;;;36.70;20.50;;;1.20;99.90;;;;;;4999553;28;20474;-43
2023/03/02 07:50:32;;;;;;;39.55;20.42;;;1.30;99.90;;;;;;4999162;28;20038;-43
2023/03/02 07:53:00;;;;;;;40.05;21.30;;;1.30;99.90;;;;;;4998653;28;20026;-43
2023/03/02 07:55:26;;;;;;;40.53;20.98;;;1.40;99.90;;;;;;5001661;28;20140;-44
2023/03/02 07:57:52;;;;;;;42.65;22.95;;;1.40;99.90;;;;;;5003733;28;20022;-42
2023/03/02 08:00:19;;;;;;;47.63;24.58;;;1.50;99.90;;;;;;5002910;28;20018;-44
2023/03/02 08:02:44;;;;;;;45.97;23.23;;;1.50;99.90;;;;;;5004076;28;20022;-43
2023/03/02 08:05:11;;;;;;;46.88;23.58;;;1.60;99.90;;;;;;5003094;28;20018;-44
2023/03/02 08:07:40;;;;;;;46.88;22.48;;;1.60;99.90;;;;;;5002654;28;20069;-42
2023/03/02 08:10:11;;;;;;;41.08;20.40;;;1.60;99.90;;;;;;5003006;28;20152;-43
2023/03/02 08:12:39;;;;;;;48.58;23.10;;;1.60;99.90;;;;;;5003123;28;20021;-44
2023/03/02 08:15:05;;;;;;;44.33;23.30;;;1.60;99.90;;;;;;5002267;28;20058;-43
2023/03/02 08:17:31;;;;;;;42.70;22.48;;;1.70;99.90;;;;;;5002653;28;20022;-44
2023/03/02 08:19:57;;;;;;;47.35;23.52;;;1.70;99.90;;;;;;5003025;28;20504;-43
2023/03/02 08:22:22;;;;;;;43.88;22.42;;;1.80;99.90;;;;;;5002451;28;20032;-44
2023/03/02 08:24:48;;;;;;;45.10;22.88;;;1.80;99.90;;;;;;5003368;28;20018;-43
2023/03/02 08:27:14;;;;;;;40.78;21.13;;;1.80;99.90;;;;;;5001245;28;20105;-43
2023/03/02 08:29:39;;;;;;;41.55;21.50;;;1.90;99.90;;;;;;5002822;28;20564;-42
2023/03/02 08:32:05;;;;;;;40.40;20.30;;;2.00;99.90;;;;;;5002626;28;20025;-44
2023/03/02 08:34:31;;;;;;;41.03;21.25;;;2.00;99.90;;;;;;5002424;28;20080;-43
2023/03/02 08:36:57;;;;;;;36.47;19.42;;;2.10;99.90;;;;;;5002470;28;20783;-43
2023/03/02 08:39:23;;;;;;;39.47;19.85;;;2.20;99.90;;;;;;5001533;28;20117;-43
2023/03/02 08:41:52;;;;;;;37.40;19.13;;;2.20;99.90;;;;;;5002680;28;20049;-43
2023/03/02 08:44:19;;;;;;;37.85;18.15;;;2.30;99.90;;;;;;5002198;28;20036;-44
2023/03/02 08:46:48;;;;;;;37.10;19.30;;;2.40;99.90;;;;;;5002899;28;20025;-43
2023/03/02 08:49:18;;;;;;;35.45;18.00;;;2.50;99.90;;;;;;5002476;28;20808;-43
2023/03/02 08:51:44;;;;;;;35.78;18.80;;;2.50;99.90;;;;;;5003322;28;20479;-43
2023/03/02 08:54:11;;;;;;;37.67;20.13;;;2.60;99.90;;;;;;5009576;28;20504;-43
2023/03/02 08:56:42;;;;;;;36.72;17.65;;;2.70;99.90;;;;;;5019074;28;20022;-44
2023/03/02 08:59:11;;;;;;;36.65;19.65;;;2.80;99.90;;;;;;5002611;28;20037;-43
2023/03/02 09:01:40;;;;;;;40.13;20.27;;;2.90;99.90;;;;;;5002491;28;20088;-43
2023/03/02 09:04:07;;;;;;;39.47;20.13;;;2.90;99.90;;;;;;4998115;28;20111;-42
2023/03/02 09:06:35;;;;;;;34.97;18.42;;;3.00;99.90;;;;;;5001673;28;20424;-43
2023/03/02 09:09:02;;;;;;;33.05;18.70;;;3.00;99.90;;;;;;5001480;28;20037;-43
2023/03/02 09:11:27;;;;;;;35.20;18.98;;;3.10;99.90;;;;;;5002817;28;20164;-43
2023/03/02 09:13:53;;;;;;;35.47;19.40;;;3.10;99.90;;;;;;5003023;28;20541;-43
2023/03/02 09:16:19;;;;;;;33.85;18.83;;;3.10;99.90;;;;;;5000000;28;20026;-44
2023/03/02 09:18:46;;;;;;;37.30;18.63;;;3.20;99.90;;;;;;5001162;28;20121;-43
2023/03/02 09:21:18;;;;;;;39.83;20.42;;;3.30;99.90;;;;;;5002432;28;20061;-43
2023/03/02 09:23:46;;;;;;;38.63;19.10;;;3.30;99.90;;;;;;5001987;28;20508;-43
2023/03/02 09:26:12;;;;;;;35.60;19.98;;;3.40;99.90;;;;;;5000637;28;20064;-44
2023/03/02 09:28:38;;;;;;;35.30;18.35;;;3.40;99.90;;;;;;5001175;28;20372;-43
2023/03/02 09:31:05;;;;;;;34.72;18.00;;;3.50;99.90;;;;;;5001715;28;20458;-44
2023/03/02 09:33:32;;;;;;;35.80;18.77;;;3.50;99.90;;;;;;5002233;28;20025;-43
2023/03/02 09:35:57;;;;;;;32.47;19.42;;;3.60;99.90;;;;;;5002053;28;20438;-44
2023/03/02 09:38:23;;;;;;;32.72;18.27;;;3.60;99.90;;;;;;5000973;28;20036;-42
2023/03/02 09:41:07;;;;;;;40.85;20.25;;;3.70;99.90;;;;;;5001651;28;20022;-43
2023/03/02 09:44:09;;;;;;;35.05;18.23;;;3.70;99.90;;;;;;5001959;28;20022;-42
2023/03/02 09:46:58;;;;;;;32.97;18.52;;;3.70;99.90;;;;;;5002190;28;20030;-43
2023/03/02 09:49:45;;;;;;;35.70;18.15;;;3.80;99.90;;;;;;5001246;28;20478;-43
2023/03/02 09:52:29;;;;;;;37.90;19.35;;;3.80;99.90;;;;;;5001287;28;20053;-44
2023/03/02 09:54:59;;;;;;;37.63;18.80;;;3.80;99.90;;;;;;5001846;28;20054;-42
2023/03/02 09:57:30;;;;;;;34.83;19.30;;;3.80;99.90;;;;;;5001527;28;20034;-43
2023/03/02 10:00:11;;;;;;;33.72;18.58;;;3.90;99.90;;;;;;5001152;28;20503;-43
2023/03/02 10:02:51;;;;;;;32.42;18.02;;;3.90;99.90;;;;;;5001527;28;20687;-43
2023/03/02 10:05:22;;;;;;;32.50;17.73;;;4.00;99.90;;;;;;4999753;28;20040;-43
2023/03/02 10:07:48;;;;;;;30.17;16.40;;;4.00;99.90;;;;;;5001493;28;20104;-43
2023/03/02 10:10:48;;;;;;;33.60;18.05;;;4.10;99.90;;;;;;5001091;28;20034;-44
2023/03/02 10:13:22;;;;;;;31.30;16.73;;;4.10;99.90;;;;;;4935228;28;20046;-44
2023/03/02 10:15:57;;;;;;;31.63;16.92;;;4.20;99.90;;;;;;4997845;28;20100;-43
2023/03/02 10:18:36;;;;;;;30.80;16.88;;;4.30;99.90;;;;;;4981290;28;20145;-43
2023/03/02 10:21:26;;;;;;;28.30;15.93;;;4.30;99.90;;;;;;4997759;28;20034;-42
2023/03/02 10:24:06;;;;;;;28.13;15.73;;;4.40;99.90;;;;;;5001719;28;20034;-44
2023/03/02 10:26:46;;;;;;;27.00;15.85;;;4.50;99.90;;;;;;5000103;28;20128;-42
2023/03/02 10:29:30;;;;;;;27.30;15.82;;;4.60;99.90;;;;;;5000343;28;20644;-43
2023/03/02 10:32:19;;;;;;;25.33;14.43;;;4.70;99.90;;;;;;5000731;28;20143;-42
2023/03/02 10:34:44;;;;;;;27.98;15.70;;;4.80;99.90;;;;;;5000420;28;20026;-42
2023/03/02 10:37:16;;;;;;;23.15;14.82;;;4.90;99.90;;;;;;5000862;28;20390;-42
2023/03/02 10:39:42;;;;;;;26.00;14.73;;;4.90;99.90;;;;;;5001816;28;20033;-43
2023/03/02 10:42:15;;;;;;;25.42;14.60;;;5.00;99.90;;;;;;5000064;28;20034;-43
2023/03/02 10:44:46;;;;;;;23.88;13.98;;;5.10;99.90;;;;;;5001299;28;20782;-43
2023/03/02 10:47:25;;;;;;;23.15;14.73;;;5.20;99.90;;;;;;5000886;28;20022;-42
2023/03/02 10:49:51;;;;;;;26.35;15.23;;;5.20;99.90;;;;;;5001019;28;20847;-43
2023/03/02 10:52:26;;;;;;;26.02;14.77;;;5.30;99.90;;;;;;4999694;28;20374;-43
2023/03/02 10:55:17;;;;;;;27.25;15.90;;;5.30;99.90;;;;;;5000466;28;20053;-43
2023/03/02 10:58:02;;;;;;;24.90;14.27;;;5.40;99.90;;;;;;4999858;28;20117;-42
2023/03/02 11:00:30;;;;;;;27.85;15.45;;;5.50;99.90;;;;;;5000961;28;20135;-42
2023/03/02 11:03:05;;;;;;;24.85;14.98;;;5.50;99.90;;;;;;4999480;28;20040;-44
2023/03/02 11:05:49;;;;;;;25.20;14.27;;;5.60;99.90;;;;;;5000223;28;20025;-44
2023/03/02 11:08:21;;;;;;;22.17;13.40;;;5.70;99.90;;;;;;5000347;28;20018;-43
2023/03/02 11:10:57;;;;;;;22.70;13.45;;;5.70;99.90;;;;;;5000799;28;20111;-41
2023/03/02 11:13:31;;;;;;;22.10;13.82;;;5.70;99.90;;;;;;4997159;28;20041;-45
2023/03/02 11:16:02;;;;;;;18.67;11.70;;;5.80;99.90;;;;;;5000180;28;20124;-42
2023/03/02 11:18:34;;;;;;;22.55;13.48;;;5.90;99.90;;;;;;5000231;28;20140;-43
2023/03/02 11:21:04;;;;;;;20.83;11.77;;;6.00;99.90;;;;;;5001110;28;20049;-33
2023/03/02 11:23:53;;;;;;;22.75;13.30;;;6.10;99.90;;;;;;5000016;28;20041;-33
2023/03/02 11:26:24;;;;;;;21.00;12.88;;;6.20;99.90;;;;;;5000178;28;20038;-35
2023/03/02 11:28:58;;;;;;;22.52;13.65;;;6.30;99.90;;;;;;5000911;28;20088;-43
2023/03/02 11:31:49;;;;;;;18.17;12.00;;;6.40;99.90;;;;;;5003819;28;20025;-43
2023/03/02 11:34:40;;;;;;;20.50;12.38;;;6.40;99.90;;;;;;5002688;28;20024;-43
2023/03/02 11:37:40;;;;;;;22.13;13.10;;;6.50;99.90;;;;;;5003427;28;20482;-43
2023/03/02 11:40:18;;;;;;;20.45;12.68;;;6.60;99.90;;;;;;4966129;28;20111;-42
2023/03/02 11:42:47;;;;;;;19.17;11.82;;;6.70;99.90;;;;;;5004688;28;20117;-42
2023/03/02 11:45:12;;;;;;;19.80;12.30;;;6.70;99.90;;;;;;5003506;28;20025;-44
2023/03/02 11:47:40;;;;;;;18.08;11.43;;;6.70;99.90;;;;;;5004469;28;20521;-43
2023/03/02 11:50:11;;;;;;;21.45;13.35;;;6.80;99.90;;;;;;5004169;28;20053;-44
2023/03/02 11:52:40;;;;;;;21.35;13.15;;;6.90;99.90;;;;;;5003760;28;20028;-43
2023/03/02 11:55:21;;;;;;;18.15;11.80;;;7.00;99.90;;;;;;5003627;28;20165;-46
2023/03/02 11:57:51;;;;;;;19.58;12.50;;;7.10;99.90;;;;;;5003626;28;20096;-42
2023/03/02 12:00:31;;;;;;;20.33;12.50;;;7.10;99.90;;;;;;5004206;28;20022;-43
2023/03/02 12:03:01;;;;;;;19.95;12.48;;;7.10;99.90;;;;;;5004075;28;20435;-43
2023/03/02 12:05:34;;;;;;;22.33;12.65;;;7.20;99.90;;;;;;5003297;28;20081;-43
2023/03/02 12:08:03;;;;;;;19.33;12.05;;;7.30;99.90;;;;;;5003744;28;20036;-44
2023/03/02 12:10:42;;;;;;;18.15;11.32;;;7.30;99.90;;;;;;5004387;28;20026;-43
2023/03/02 12:13:19;;;;;;;18.55;11.38;;;7.30;99.90;;;;;;5003925;28;20148;-46
2023/03/02 12:15:52;;;;;;;15.98;10.57;;;7.40;99.90;;;;;;5003886;28;20840;-43
2023/03/02 12:18:20;;;;;;;16.67;10.38;;;7.40;99.90;;;;;;5003537;28;20152;-43
2023/03/02 12:21:01;;;;;;;16.48;10.10;;;7.40;99.90;;;;;;5003646;28;20045;-43
2023/03/02 12:23:28;;;;;;;17.80;10.68;;;7.50;99.90;;;;;;5003282;28;20037;-43
2023/03/02 12:26:26;;;;;;;20.23;11.88;;;7.50;99.90;;;;;;5003366;28;20080;-43
2023/03/02 12:28:58;;;;;;;16.92;10.88;;;7.60;99.90;;;;;;5003967;28;20026;-42
2023/03/02 12:31:24;;;;;;;14.95;10.60;;;7.70;99.90;;;;;;4993071;28;20611;-42
2023/03/02 12:33:51;;;;;;;15.77;10.60;;;7.70;99.90;;;;;;5002973;28;20033;-43
2023/03/02 12:36:30;;;;;;;19.52;12.25;;;7.80;99.90;;;;;;5001310;28;20092;-43
2023/03/02 12:39:08;;;;;;;16.08;10.77;;;7.80;99.90;;;;;;5003814;28;20036;-42
2023/03/02 12:42:11;;;;;;;15.60;10.50;;;7.90;99.90;;;;;;5002310;28;20040;-42
2023/03/02 12:44:59;;;;;;;18.33;10.82;;;7.90;99.90;;;;;;5002895;28;20034;-42
2023/03/02 12:47:29;;;;;;;16.02;10.40;;;8.00;99.90;;;;;;5002423;28;20038;-42
2023/03/02 12:50:22;;;;;;;19.45;12.25;;;8.00;99.90;;;;;;5002689;28;20092;-43
2023/03/02 12:53:04;;;;;;;20.65;12.18;;;8.10;99.90;;;;;;5003292;28;20033;-42